Hilo International Airport Hilo US
ICAO: PHTO
IATA: ITO
Category: Medium
Scheduled Services:

Elevation: 38 ft
TransAlt. 18000 ft.

Airport Communications:
APP/DEP:119.7
ATIS:126.4
CTAF:118.1
GND:121.9
HONOLULU RDO:122.6
TWR:118.1

PHTO Zoom In..

If you have problems with the map follow the link
https://www.worldairports.se/pages/airport.php?
ICAO=PHTO

Runways:

(A) RW 03 length 5600 ft width 150 ft
---- / hdg 30

(B) RW 08 length 9800 ft width 150 ft
---- / hdg 79

(C) RW 21 length 5600 ft width 150 ft
---- / hdg 210

(D) RW 26 length 9800 ft width 150 ft
ILS 110.70 / hdg 259

Location; PHTO
Day. 19 / Time. 16.53 Zulu
* Altimeter: 30.10
* Temperature: 20° c. 68°f.
* Wind from: 250° Speed 05 kn.
Dewpoint: 16° c.
Visibility: 10 Statute Miles.
Clouds: Scattered 5500 ft.

PHTO 191653Z 25005KT 10SM SCT055 20/16 A3010 RMK AO2 SLP192 T02000161


Wind From 250°
Speed 05 kn.

 
 
jpsmedia worldairports.se 2020   terms of use